sensor_id;sensor_type;location;lat;lon;timestamp;temperature;humidity
14850;DHT22;7517;48.400;11.770;2023-12-04T00:01:57;-2.30;68.40
14850;DHT22;7517;48.400;11.770;2023-12-04T00:04:24;-2.30;68.50
14850;DHT22;7517;48.400;11.770;2023-12-04T00:06:51;-2.30;68.30
14850;DHT22;7517;48.400;11.770;2023-12-04T00:09:19;-2.30;68.90
14850;DHT22;7517;48.400;11.770;2023-12-04T00:11:48;-2.30;68.40
14850;DHT22;7517;48.400;11.770;2023-12-04T00:14:15;-2.30;68.20
14850;DHT22;7517;48.400;11.770;2023-12-04T00:16:42;-2.30;68.20
14850;DHT22;7517;48.400;11.770;2023-12-04T00:19:09;-2.30;68.20
14850;DHT22;7517;48.400;11.770;2023-12-04T00:21:36;-2.30;68.20
14850;DHT22;7517;48.400;11.770;2023-12-04T00:24:04;-2.30;68.20
14850;DHT22;7517;48.400;11.770;2023-12-04T00:26:31;-2.30;68.20
14850;DHT22;7517;48.400;11.770;2023-12-04T00:29:00;-2.30;68.40
14850;DHT22;7517;48.400;11.770;2023-12-04T00:31:28;-2.30;68.50
14850;DHT22;7517;48.400;11.770;2023-12-04T00:33:56;-2.30;68.60
14850;DHT22;7517;48.400;11.770;2023-12-04T00:36:23;-2.30;68.60
14850;DHT22;7517;48.400;11.770;2023-12-04T00:38:51;-2.30;68.70
14850;DHT22;7517;48.400;11.770;2023-12-04T00:41:18;-2.30;68.70
14850;DHT22;7517;48.400;11.770;2023-12-04T00:43:45;-2.20;68.90
14850;DHT22;7517;48.400;11.770;2023-12-04T00:46:13;-2.20;69.10
14850;DHT22;7517;48.400;11.770;2023-12-04T00:48:40;-2.20;69.40
14850;DHT22;7517;48.400;11.770;2023-12-04T00:51:07;-2.10;69.50
14850;DHT22;7517;48.400;11.770;2023-12-04T00:53:34;-2.10;69.50
14850;DHT22;7517;48.400;11.770;2023-12-04T00:56:02;-2.10;69.50
14850;DHT22;7517;48.400;11.770;2023-12-04T00:58:29;-2.00;69.70
14850;DHT22;7517;48.400;11.770;2023-12-04T01:00:56;-2.00;69.60
14850;DHT22;7517;48.400;11.770;2023-12-04T01:03:25;-2.00;69.60
14850;DHT22;7517;48.400;11.770;2023-12-04T01:05:52;-1.90;69.70
14850;DHT22;7517;48.400;11.770;2023-12-04T01:08:19;-1.90;69.70
14850;DHT22;7517;48.400;11.770;2023-12-04T01:10:47;-1.90;69.70
14850;DHT22;7517;48.400;11.770;2023-12-04T01:13:14;-1.90;69.70
14850;DHT22;7517;48.400;11.770;2023-12-04T01:15:41;-1.80;69.80
14850;DHT22;7517;48.400;11.770;2023-12-04T01:18:10;-1.80;69.60
14850;DHT22;7517;48.400;11.770;2023-12-04T01:20:38;-1.80;69.60
14850;DHT22;7517;48.400;11.770;2023-12-04T01:23:05;-1.80;69.60
14850;DHT22;7517;48.400;11.770;2023-12-04T01:25:32;-1.70;69.70
14850;DHT22;7517;48.400;11.770;2023-12-04T01:27:59;-1.70;69.70
14850;DHT22;7517;48.400;11.770;2023-12-04T01:30:26;-1.70;69.70
14850;DHT22;7517;48.400;11.770;2023-12-04T01:32:54;-1.70;69.70
14850;DHT22;7517;48.400;11.770;2023-12-04T01:35:21;-1.70;69.50
14850;DHT22;7517;48.400;11.770;2023-12-04T01:37:49;-1.70;69.50
14850;DHT22;7517;48.400;11.770;2023-12-04T01:40:16;-1.70;69.30
14850;DHT22;7517;48.400;11.770;2023-12-04T01:42:43;-1.70;69.20
14850;DHT22;7517;48.400;11.770;2023-12-04T01:45:10;-1.70;69.10
14850;DHT22;7517;48.400;11.770;2023-12-04T01:47:37;-1.70;69.00
14850;DHT22;7517;48.400;11.770;2023-12-04T01:50:06;-1.70;69.00
14850;DHT22;7517;48.400;11.770;2023-12-04T01:52:35;-1.70;69.00
14850;DHT22;7517;48.400;11.770;2023-12-04T01:55:06;-1.70;69.00
14850;DHT22;7517;48.400;11.770;2023-12-04T01:57:36;-1.50;69.10
14850;DHT22;7517;48.400;11.770;2023-12-04T02:00:04;-1.70;69.00
14850;DHT22;7517;48.400;11.770;2023-12-04T02:02:36;-1.80;68.80
14850;DHT22;7517;48.400;11.770;2023-12-04T02:05:06;-1.70;68.90
14850;DHT22;7517;48.400;11.770;2023-12-04T02:07:35;-1.80;68.80
14850;DHT22;7517;48.400;11.770;2023-12-04T02:10:02;-1.80;68.70
14850;DHT22;7517;48.400;11.770;2023-12-04T02:12:31;-1.80;68.60
14850;DHT22;7517;48.400;11.770;2023-12-04T02:14:59;-1.80;68.50
14850;DHT22;7517;48.400;11.770;2023-12-04T02:17:26;-1.80;68.50
14850;DHT22;7517;48.400;11.770;2023-12-04T02:19:55;-1.80;68.50
14850;DHT22;7517;48.400;11.770;2023-12-04T02:22:22;-1.80;68.40
14850;DHT22;7517;48.400;11.770;2023-12-04T02:24:51;-1.90;68.20
14850;DHT22;7517;48.400;11.770;2023-12-04T02:27:22;-1.80;68.20
14850;DHT22;7517;48.400;11.770;2023-12-04T02:29:54;-1.90;68.10
14850;DHT22;7517;48.400;11.770;2023-12-04T02:32:25;-1.90;68.10
14850;DHT22;7517;48.400;11.770;2023-12-04T02:34:56;-1.90;68.10
14850;DHT22;7517;48.400;11.770;2023-12-04T02:37:26;-2.00;67.90
14850;DHT22;7517;48.400;11.770;2023-12-04T02:39:55;-2.00;67.80
14850;DHT22;7517;48.400;11.770;2023-12-04T02:42:22;-2.00;67.70
14850;DHT22;7517;48.400;11.770;2023-12-04T02:44:51;-1.90;67.90
14850;DHT22;7517;48.400;11.770;2023-12-04T02:47:18;-2.10;67.70
14850;DHT22;7517;48.400;11.770;2023-12-04T02:49:45;-2.10;67.70
14850;DHT22;7517;48.400;11.770;2023-12-04T02:52:13;-2.10;67.60
14850;DHT22;7517;48.400;11.770;2023-12-04T02:54:40;-2.20;67.70
14850;DHT22;7517;48.400;11.770;2023-12-04T02:57:08;-2.20;67.80
14850;DHT22;7517;48.400;11.770;2023-12-04T02:59:35;-2.20;67.90
14850;DHT22;7517;48.400;11.770;2023-12-04T03:02:02;-2.20;67.80
14850;DHT22;7517;48.400;11.770;2023-12-04T03:04:30;-2.20;67.80
14850;DHT22;7517;48.400;11.770;2023-12-04T03:06:58;-2.20;67.90
14850;DHT22;7517;48.400;11.770;2023-12-04T03:09:25;-2.30;67.90
14850;DHT22;7517;48.400;11.770;2023-12-04T03:11:52;-2.30;67.70
14850;DHT22;7517;48.400;11.770;2023-12-04T03:14:20;-2.30;67.70
14850;DHT22;7517;48.400;11.770;2023-12-04T03:16:47;-2.30;67.80
14850;DHT22;7517;48.400;11.770;2023-12-04T03:19:16;-2.30;67.70
14850;DHT22;7517;48.400;11.770;2023-12-04T03:21:43;-2.40;67.60
14850;DHT22;7517;48.400;11.770;2023-12-04T03:24:10;-2.40;67.50
14850;DHT22;7517;48.400;11.770;2023-12-04T03:26:37;-2.40;67.60
14850;DHT22;7517;48.400;11.770;2023-12-04T03:29:04;-2.50;67.50
14850;DHT22;7517;48.400;11.770;2023-12-04T03:31:32;-2.50;67.60
14850;DHT22;7517;48.400;11.770;2023-12-04T03:33:59;-2.50;67.60
14850;DHT22;7517;48.400;11.770;2023-12-04T03:36:26;-2.50;67.60
14850;DHT22;7517;48.400;11.770;2023-12-04T03:38:54;-2.50;67.70
14850;DHT22;7517;48.400;11.770;2023-12-04T03:41:21;-2.50;67.80
14850;DHT22;7517;48.400;11.770;2023-12-04T03:43:48;-2.50;68.40
14850;DHT22;7517;48.400;11.770;2023-12-04T03:46:15;-2.50;67.80
14850;DHT22;7517;48.400;11.770;2023-12-04T03:48:45;-2.50;67.80
14850;DHT22;7517;48.400;11.770;2023-12-04T03:51:12;-2.60;67.70
14850;DHT22;7517;48.400;11.770;2023-12-04T03:53:39;-2.60;67.70
14850;DHT22;7517;48.400;11.770;2023-12-04T03:56:07;-2.60;67.80
14850;DHT22;7517;48.400;11.770;2023-12-04T03:58:35;-2.60;67.70
14850;DHT22;7517;48.400;11.770;2023-12-04T04:01:03;-2.60;67.80
14850;DHT22;7517;48.400;11.770;2023-12-04T04:03:30;-2.60;67.70
14850;DHT22;7517;48.400;11.770;2023-12-04T04:05:58;-2.60;67.80
14850;DHT22;7517;48.400;11.770;2023-12-04T04:08:26;-2.70;67.60
14850;DHT22;7517;48.400;11.770;2023-12-04T04:10:53;-2.70;67.70
14850;DHT22;7517;48.400;11.770;2023-12-04T04:13:20;-2.70;67.90
14850;DHT22;7517;48.400;11.770;2023-12-04T04:15:47;-2.70;68.60
14850;DHT22;7517;48.400;11.770;2023-12-04T04:18:14;-2.70;67.90
14850;DHT22;7517;48.400;11.770;2023-12-04T04:20:41;-2.70;67.90
14850;DHT22;7517;48.400;11.770;2023-12-04T04:23:09;-2.70;67.80
14850;DHT22;7517;48.400;11.770;2023-12-04T04:25:36;-2.70;67.80
14850;DHT22;7517;48.400;11.770;2023-12-04T04:28:03;-2.70;67.80
14850;DHT22;7517;48.400;11.770;2023-12-04T04:30:30;-2.80;67.80
14850;DHT22;7517;48.400;11.770;2023-12-04T04:32:58;-1.40;68.60
14850;DHT22;7517;48.400;11.770;2023-12-04T04:35:25;-2.70;67.90
14850;DHT22;7517;48.400;11.770;2023-12-04T04:37:52;-2.70;68.20
14850;DHT22;7517;48.400;11.770;2023-12-04T04:40:20;-2.70;68.10
14850;DHT22;7517;48.400;11.770;2023-12-04T04:42:47;-2.70;68.20
14850;DHT22;7517;48.400;11.770;2023-12-04T04:45:14;-2.70;68.20
14850;DHT22;7517;48.400;11.770;2023-12-04T04:47:41;-2.70;67.90
14850;DHT22;7517;48.400;11.770;2023-12-04T04:50:09;-2.70;67.90
14850;DHT22;7517;48.400;11.770;2023-12-04T04:52:36;-2.80;67.90
14850;DHT22;7517;48.400;11.770;2023-12-04T04:55:05;-2.70;68.00
14850;DHT22;7517;48.400;11.770;2023-12-04T04:57:33;-2.70;68.10
14850;DHT22;7517;48.400;11.770;2023-12-04T05:00:01;-2.70;68.30
14850;DHT22;7517;48.400;11.770;2023-12-04T05:02:28;-2.70;68.30
14850;DHT22;7517;48.400;11.770;2023-12-04T05:04:55;-2.70;68.00
14850;DHT22;7517;48.400;11.770;2023-12-04T05:07:22;-2.70;67.90
14850;DHT22;7517;48.400;11.770;2023-12-04T05:09:49;-1.00;69.10
14850;DHT22;7517;48.400;11.770;2023-12-04T05:12:16;-2.70;68.00
14850;DHT22;7517;48.400;11.770;2023-12-04T05:14:44;-2.70;68.10
14850;DHT22;7517;48.400;11.770;2023-12-04T05:17:12;-2.70;68.00
14850;DHT22;7517;48.400;11.770;2023-12-04T05:19:39;-2.70;68.10
14850;DHT22;7517;48.400;11.770;2023-12-04T05:22:06;-2.70;68.00
14850;DHT22;7517;48.400;11.770;2023-12-04T05:24:34;-2.70;68.00
14850;DHT22;7517;48.400;11.770;2023-12-04T05:27:02;-2.70;68.20
14850;DHT22;7517;48.400;11.770;2023-12-04T05:29:29;-2.70;68.10
14850;DHT22;7517;48.400;11.770;2023-12-04T05:31:57;-2.70;68.10
14850;DHT22;7517;48.400;11.770;2023-12-04T05:34:24;-2.60;68.20
14850;DHT22;7517;48.400;11.770;2023-12-04T05:36:51;-2.70;68.10
14850;DHT22;7517;48.400;11.770;2023-12-04T05:39:18;-2.60;68.20
14850;DHT22;7517;48.400;11.770;2023-12-04T05:41:45;-2.60;68.30
14850;DHT22;7517;48.400;11.770;2023-12-04T05:44:13;-2.60;68.40
14850;DHT22;7517;48.400;11.770;2023-12-04T05:46:40;-2.60;68.50
14850;DHT22;7517;48.400;11.770;2023-12-04T05:49:08;-2.60;68.50
14850;DHT22;7517;48.400;11.770;2023-12-04T05:51:36;-2.60;68.60
14850;DHT22;7517;48.400;11.770;2023-12-04T05:54:03;-2.60;68.70
14850;DHT22;7517;48.400;11.770;2023-12-04T05:56:30;-2.50;68.60
14850;DHT22;7517;48.400;11.770;2023-12-04T05:58:57;-2.50;68.60
14850;DHT22;7517;48.400;11.770;2023-12-04T06:01:24;-2.50;68.60
14850;DHT22;7517;48.400;11.770;2023-12-04T06:03:51;-2.50;68.70
14850;DHT22;7517;48.400;11.770;2023-12-04T06:06:19;-2.50;68.80
14850;DHT22;7517;48.400;11.770;2023-12-04T06:08:46;-2.50;68.80
14850;DHT22;7517;48.400;11.770;2023-12-04T06:11:14;-2.50;68.80
14850;DHT22;7517;48.400;11.770;2023-12-04T06:13:41;-2.40;69.00
14850;DHT22;7517;48.400;11.770;2023-12-04T06:16:08;-2.40;68.70
14850;DHT22;7517;48.400;11.770;2023-12-04T06:18:36;-2.40;68.80
14850;DHT22;7517;48.400;11.770;2023-12-04T06:21:04;-2.40;68.80
14850;DHT22;7517;48.400;11.770;2023-12-04T06:23:33;-2.40;68.80
14850;DHT22;7517;48.400;11.770;2023-12-04T06:26:01;-2.30;68.90
14850;DHT22;7517;48.400;11.770;2023-12-04T06:28:29;-2.30;68.90
14850;DHT22;7517;48.400;11.770;2023-12-04T06:30:58;-2.30;69.00
14850;DHT22;7517;48.400;11.770;2023-12-04T06:33:26;-2.30;68.90
14850;DHT22;7517;48.400;11.770;2023-12-04T06:35:54;-2.20;68.70
14850;DHT22;7517;48.400;11.770;2023-12-04T06:38:24;-2.20;68.70
14850;DHT22;7517;48.400;11.770;2023-12-04T06:40:54;-2.10;68.90
14850;DHT22;7517;48.400;11.770;2023-12-04T06:43:22;-2.10;68.80
14850;DHT22;7517;48.400;11.770;2023-12-04T06:45:51;-2.00;68.80
14850;DHT22;7517;48.400;11.770;2023-12-04T06:48:21;-2.00;68.60
14850;DHT22;7517;48.400;11.770;2023-12-04T06:50:49;-2.00;68.40
14850;DHT22;7517;48.400;11.770;2023-12-04T06:53:16;-1.90;68.30
14850;DHT22;7517;48.400;11.770;2023-12-04T06:55:43;-0.90;69.20
14850;DHT22;7517;48.400;11.770;2023-12-04T06:58:14;-1.90;68.60
14850;DHT22;7517;48.400;11.770;2023-12-04T07:00:44;-1.00;68.90
14850;DHT22;7517;48.400;11.770;2023-12-04T07:03:16;0.10;69.40
14850;DHT22;7517;48.400;11.770;2023-12-04T07:05:47;-0.90;68.70
14850;DHT22;7517;48.400;11.770;2023-12-04T07:08:17;-1.50;68.70
14850;DHT22;7517;48.400;11.770;2023-12-04T07:10:47;-0.80;68.80
14850;DHT22;7517;48.400;11.770;2023-12-04T07:13:16;-1.70;68.20
14850;DHT22;7517;48.400;11.770;2023-12-04T07:15:43;-1.70;68.20
14850;DHT22;7517;48.400;11.770;2023-12-04T07:18:10;-1.30;68.60
14850;DHT22;7517;48.400;11.770;2023-12-04T07:20:37;-0.60;69.10
14850;DHT22;7517;48.400;11.770;2023-12-04T07:23:06;-1.80;68.60
14850;DHT22;7517;48.400;11.770;2023-12-04T07:25:39;-0.50;69.20
14850;DHT22;7517;48.400;11.770;2023-12-04T07:28:07;-0.80;68.90
14850;DHT22;7517;48.400;11.770;2023-12-04T07:30:36;-0.30;69.30
14850;DHT22;7517;48.400;11.770;2023-12-04T07:33:05;-0.80;69.20
14850;DHT22;7517;48.400;11.770;2023-12-04T07:35:32;-1.50;69.50
14850;DHT22;7517;48.400;11.770;2023-12-04T07:37:59;-1.50;68.30
14850;DHT22;7517;48.400;11.770;2023-12-04T07:40:31;-1.50;68.50
14850;DHT22;7517;48.400;11.770;2023-12-04T07:43:01;-1.50;68.50
14850;DHT22;7517;48.400;11.770;2023-12-04T07:45:29;-1.50;68.80
14850;DHT22;7517;48.400;11.770;2023-12-04T07:47:57;0.40;69.90
14850;DHT22;7517;48.400;11.770;2023-12-04T07:50:24;0.10;69.60
14850;DHT22;7517;48.400;11.770;2023-12-04T07:52:51;-1.20;68.70
14850;DHT22;7517;48.400;11.770;2023-12-04T07:55:19;-1.20;69.10
14850;DHT22;7517;48.400;11.770;2023-12-04T07:57:46;-1.20;69.00
14850;DHT22;7517;48.400;11.770;2023-12-04T08:00:21;0.30;69.80
14850;DHT22;7517;48.400;11.770;2023-12-04T08:02:48;-0.20;69.50
14850;DHT22;7517;48.400;11.770;2023-12-04T08:05:17;-0.90;69.20
14850;DHT22;7517;48.400;11.770;2023-12-04T08:07:44;-0.90;69.10
14850;DHT22;7517;48.400;11.770;2023-12-04T08:10:14;-0.20;69.70
14850;DHT22;7517;48.400;11.770;2023-12-04T08:12:44;-0.80;69.00
14850;DHT22;7517;48.400;11.770;2023-12-04T08:15:12;0.30;70.10
14850;DHT22;7517;48.400;11.770;2023-12-04T08:17:39;-0.70;69.50
14850;DHT22;7517;48.400;11.770;2023-12-04T08:20:07;-0.60;69.30
14850;DHT22;7517;48.400;11.770;2023-12-04T08:22:40;-0.60;69.40
14850;DHT22;7517;48.400;11.770;2023-12-04T08:25:08;-0.60;70.00
14850;DHT22;7517;48.400;11.770;2023-12-04T08:27:35;-0.50;69.70
14850;DHT22;7517;48.400;11.770;2023-12-04T08:30:06;0.60;70.50
14850;DHT22;7517;48.400;11.770;2023-12-04T08:32:33;-1.20;69.10
14850;DHT22;7517;48.400;11.770;2023-12-04T08:35:00;-0.30;69.60
14850;DHT22;7517;48.400;11.770;2023-12-04T08:37:29;-0.20;69.50
14850;DHT22;7517;48.400;11.770;2023-12-04T08:39:58;-0.20;69.60
14850;DHT22;7517;48.400;11.770;2023-12-04T08:42:25;0.00;69.70
14850;DHT22;7517;48.400;11.770;2023-12-04T08:44:52;0.00;69.40
14850;DHT22;7517;48.400;11.770;2023-12-04T08:47:19;0.10;69.70
14850;DHT22;7517;48.400;11.770;2023-12-04T08:49:46;1.60;70.80
14850;DHT22;7517;48.400;11.770;2023-12-04T08:52:13;0.20;69.80
14850;DHT22;7517;48.400;11.770;2023-12-04T08:54:41;0.30;69.90
14850;DHT22;7517;48.400;11.770;2023-12-04T08:57:09;0.40;69.80
14850;DHT22;7517;48.400;11.770;2023-12-04T08:59:36;0.40;69.70
14850;DHT22;7517;48.400;11.770;2023-12-04T09:02:04;0.50;69.50
14850;DHT22;7517;48.400;11.770;2023-12-04T09:04:31;0.50;69.50
14850;DHT22;7517;48.400;11.770;2023-12-04T09:06:58;0.50;69.20
14850;DHT22;7517;48.400;11.770;2023-12-04T09:09:26;1.20;69.70
14850;DHT22;7517;48.400;11.770;2023-12-04T09:11:53;1.70;70.30
14850;DHT22;7517;48.400;11.770;2023-12-04T09:14:24;0.40;69.30
14850;DHT22;7517;48.400;11.770;2023-12-04T09:16:53;0.70;69.40
14850;DHT22;7517;48.400;11.770;2023-12-04T09:19:20;2.00;70.60
14850;DHT22;7517;48.400;11.770;2023-12-04T09:21:47;1.90;70.40
14850;DHT22;7517;48.400;11.770;2023-12-04T09:24:15;0.70;69.50
14850;DHT22;7517;48.400;11.770;2023-12-04T09:26:42;2.50;70.30
14850;DHT22;7517;48.400;11.770;2023-12-04T09:29:11;2.40;70.40
14850;DHT22;7517;48.400;11.770;2023-12-04T09:31:43;0.80;69.20
14850;DHT22;7517;48.400;11.770;2023-12-04T09:34:10;2.10;70.80
14850;DHT22;7517;48.400;11.770;2023-12-04T09:36:37;2.40;70.80
14850;DHT22;7517;48.400;11.770;2023-12-04T09:39:04;2.30;70.40
14850;DHT22;7517;48.400;11.770;2023-12-04T09:41:32;2.40;70.50
14850;DHT22;7517;48.400;11.770;2023-12-04T09:43:59;2.20;70.40
14850;DHT22;7517;48.400;11.770;2023-12-04T09:46:27;-0.20;68.80
14850;DHT22;7517;48.400;11.770;2023-12-04T09:48:56;1.10;69.80
14850;DHT22;7517;48.400;11.770;2023-12-04T09:51:24;1.10;69.70
14850;DHT22;7517;48.400;11.770;2023-12-04T09:53:54;1.10;69.40
14850;DHT22;7517;48.400;11.770;2023-12-04T09:56:22;1.20;69.30
14850;DHT22;7517;48.400;11.770;2023-12-04T09:58:53;1.20;69.50
14850;DHT22;7517;48.400;11.770;2023-12-04T10:01:25;3.00;70.50
14850;DHT22;7517;48.400;11.770;2023-12-04T10:03:56;1.20;69.30
14850;DHT22;7517;48.400;11.770;2023-12-04T10:06:26;1.90;69.30
14850;DHT22;7517;48.400;11.770;2023-12-04T10:08:55;1.30;69.10
14850;DHT22;7517;48.400;11.770;2023-12-04T10:11:23;1.30;69.30
14850;DHT22;7517;48.400;11.770;2023-12-04T10:13:50;1.30;69.40
14850;DHT22;7517;48.400;11.770;2023-12-04T10:16:32;1.40;69.30
14850;DHT22;7517;48.400;11.770;2023-12-04T10:19:17;2.90;70.20
14850;DHT22;7517;48.400;11.770;2023-12-04T10:21:47;2.70;70.20
14850;DHT22;7517;48.400;11.770;2023-12-04T10:24:28;1.50;70.00
14850;DHT22;7517;48.400;11.770;2023-12-04T10:26:56;1.40;69.30
14850;DHT22;7517;48.400;11.770;2023-12-04T10:29:27;2.50;70.20
14850;DHT22;7517;48.400;11.770;2023-12-04T10:31:58;2.50;70.20
14850;DHT22;7517;48.400;11.770;2023-12-04T10:34:27;2.90;70.10
14850;DHT22;7517;48.400;11.770;2023-12-04T10:36:55;1.70;69.60
14850;DHT22;7517;48.400;11.770;2023-12-04T10:39:45;1.50;69.40
14850;DHT22;7517;48.400;11.770;2023-12-04T10:42:23;3.00;70.10
14850;DHT22;7517;48.400;11.770;2023-12-04T10:44:52;1.70;69.10
14850;DHT22;7517;48.400;11.770;2023-12-04T10:47:21;2.90;70.30
14850;DHT22;7517;48.400;11.770;2023-12-04T10:49:53;2.30;70.30
14850;DHT22;7517;48.400;11.770;2023-12-04T10:52:22;3.60;70.90
14850;DHT22;7517;48.400;11.770;2023-12-04T10:54:50;3.70;70.90
14850;DHT22;7517;48.400;11.770;2023-12-04T10:57:22;2.80;70.40
14850;DHT22;7517;48.400;11.770;2023-12-04T11:00:00;3.60;70.50
14850;DHT22;7517;48.400;11.770;2023-12-04T11:02:34;2.00;69.60
14850;DHT22;7517;48.400;11.770;2023-12-04T11:05:08;3.90;71.40
14850;DHT22;7517;48.400;11.770;2023-12-04T11:07:46;3.80;71.10
14850;DHT22;7517;48.400;11.770;2023-12-04T11:10:17;2.10;69.90
14850;DHT22;7517;48.400;11.770;2023-12-04T11:12:53;3.30;70.70
14850;DHT22;7517;48.400;11.770;2023-12-04T11:15:24;2.70;70.50
14850;DHT22;7517;48.400;11.770;2023-12-04T11:17:58;2.30;69.90
14850;DHT22;7517;48.400;11.770;2023-12-04T11:20:31;2.30;69.50
14850;DHT22;7517;48.400;11.770;2023-12-04T11:23:03;2.40;69.60
14850;DHT22;7517;48.400;11.770;2023-12-04T11:25:32;2.50;69.50
14850;DHT22;7517;48.400;11.770;2023-12-04T11:28:02;2.40;69.80
14850;DHT22;7517;48.400;11.770;2023-12-04T11:30:30;3.50;70.20
14850;DHT22;7517;48.400;11.770;2023-12-04T11:33:00;2.50;69.70
14850;DHT22;7517;48.400;11.770;2023-12-04T11:35:54;2.60;69.70
14850;DHT22;7517;48.400;11.770;2023-12-04T11:38:43;3.20;69.30
14850;DHT22;7517;48.400;11.770;2023-12-04T11:41:26;2.60;69.50
14850;DHT22;7517;48.400;11.770;2023-12-04T11:44:15;2.60;69.50
14850;DHT22;7517;48.400;11.770;2023-12-04T11:46:56;2.90;69.30
14850;DHT22;7517;48.400;11.770;2023-12-04T11:49:36;2.70;69.10
14850;DHT22;7517;48.400;11.770;2023-12-04T11:52:16;2.70;70.00
14850;DHT22;7517;48.400;11.770;2023-12-04T11:55:00;3.80;70.10
14850;DHT22;7517;48.400;11.770;2023-12-04T11:57:32;2.70;69.60
14850;DHT22;7517;48.400;11.770;2023-12-04T12:00:18;2.80;69.40
14850;DHT22;7517;48.400;11.770;2023-12-04T12:03:00;2.80;68.90
14850;DHT22;7517;48.400;11.770;2023-12-04T12:05:30;2.80;69.20
14850;DHT22;7517;48.400;11.770;2023-12-04T12:08:03;2.80;70.10
14850;DHT22;7517;48.400;11.770;2023-12-04T12:10:32;2.80;69.10
14850;DHT22;7517;48.400;11.770;2023-12-04T12:13:00;3.20;69.30
14850;DHT22;7517;48.400;11.770;2023-12-04T12:15:28;3.80;69.70
14850;DHT22;7517;48.400;11.770;2023-12-04T12:17:56;2.80;69.30
14850;DHT22;7517;48.400;11.770;2023-12-04T12:20:23;4.60;70.50
14850;DHT22;7517;48.400;11.770;2023-12-04T12:22:50;4.10;70.20
14850;DHT22;7517;48.400;11.770;2023-12-04T12:25:20;2.90;69.40
14850;DHT22;7517;48.400;11.770;2023-12-04T12:27:51;2.90;69.20
14850;DHT22;7517;48.400;11.770;2023-12-04T12:30:18;2.80;69.30
14850;DHT22;7517;48.400;11.770;2023-12-04T12:32:46;4.00;70.20
14850;DHT22;7517;48.400;11.770;2023-12-04T12:35:13;2.90;69.60
14850;DHT22;7517;48.400;11.770;2023-12-04T12:37:42;3.80;70.20
14850;DHT22;7517;48.400;11.770;2023-12-04T12:40:10;4.10;70.50
14850;DHT22;7517;48.400;11.770;2023-12-04T12:42:39;2.90;69.60
14850;DHT22;7517;48.400;11.770;2023-12-04T12:45:11;2.90;69.50
14850;DHT22;7517;48.400;11.770;2023-12-04T12:47:40;4.10;70.40
14850;DHT22;7517;48.400;11.770;2023-12-04T12:50:14;3.00;69.50
14850;DHT22;7517;48.400;11.770;2023-12-04T12:52:44;1.50;68.50
14850;DHT22;7517;48.400;11.770;2023-12-04T12:55:11;4.40;70.20
14850;DHT22;7517;48.400;11.770;2023-12-04T12:58:00;4.20;70.00
14850;DHT22;7517;48.400;11.770;2023-12-04T13:00:48;2.40;68.50
14850;DHT22;7517;48.400;11.770;2023-12-04T13:03:19;2.90;69.00
14850;DHT22;7517;48.400;11.770;2023-12-04T13:24:59;2.90;69.30
14850;DHT22;7517;48.400;11.770;2023-12-04T13:28:18;3.30;69.80
14850;DHT22;7517;48.400;11.770;2023-12-04T13:31:58;3.00;69.50
14850;DHT22;7517;48.400;11.770;2023-12-04T13:35:22;3.10;68.80
14850;DHT22;7517;48.400;11.770;2023-12-04T13:41:41;2.90;68.40
14850;DHT22;7517;48.400;11.770;2023-12-04T13:44:44;2.90;68.50
14850;DHT22;7517;48.400;11.770;2023-12-04T13:47:16;4.20;69.70
14850;DHT22;7517;48.400;11.770;2023-12-04T13:49:44;2.80;68.30
14850;DHT22;7517;48.400;11.770;2023-12-04T13:52:12;4.00;68.90
14850;DHT22;7517;48.400;11.770;2023-12-04T13:54:50;2.60;68.20
14850;DHT22;7517;48.400;11.770;2023-12-04T13:57:31;2.40;68.30
14850;DHT22;7517;48.400;11.770;2023-12-04T14:00:22;2.50;68.50
14850;DHT22;7517;48.400;11.770;2023-12-04T14:02:51;2.50;69.00
14850;DHT22;7517;48.400;11.770;2023-12-04T14:05:25;1.90;68.60
14850;DHT22;7517;48.400;11.770;2023-12-04T14:07:52;2.90;69.10
14850;DHT22;7517;48.400;11.770;2023-12-04T14:10:24;3.80;70.00
14850;DHT22;7517;48.400;11.770;2023-12-04T14:12:52;3.20;69.60
14850;DHT22;7517;48.400;11.770;2023-12-04T14:15:20;2.30;69.10
14850;DHT22;7517;48.400;11.770;2023-12-04T14:18:01;3.10;69.60
14850;DHT22;7517;48.400;11.770;2023-12-04T14:20:49;0.80;67.60
14850;DHT22;7517;48.400;11.770;2023-12-04T14:23:27;2.90;69.00
14850;DHT22;7517;48.400;11.770;2023-12-04T14:26:28;2.40;68.90
14850;DHT22;7517;48.400;11.770;2023-12-04T14:29:18;2.30;68.50
14850;DHT22;7517;48.400;11.770;2023-12-04T14:32:09;2.10;68.80
14850;DHT22;7517;48.400;11.770;2023-12-04T14:35:05;2.10;69.10
14850;DHT22;7517;48.400;11.770;2023-12-04T14:38:55;2.20;69.10
14850;DHT22;7517;48.400;11.770;2023-12-04T14:41:20;2.20;69.20
14850;DHT22;7517;48.400;11.770;2023-12-04T14:44:16;2.20;69.40
14850;DHT22;7517;48.400;11.770;2023-12-04T14:46:50;2.20;69.20
14850;DHT22;7517;48.400;11.770;2023-12-04T14:49:52;3.20;70.00
14850;DHT22;7517;48.400;11.770;2023-12-04T14:55:25;3.30;69.90
14850;DHT22;7517;48.400;11.770;2023-12-04T14:58:59;2.00;69.10
14850;DHT22;7517;48.400;11.770;2023-12-04T15:02:21;2.00;68.70
14850;DHT22;7517;48.400;11.770;2023-12-04T15:05:45;2.00;68.80
14850;DHT22;7517;48.400;11.770;2023-12-04T15:08:53;0.10;67.30
14850;DHT22;7517;48.400;11.770;2023-12-04T15:12:07;2.40;68.80
14850;DHT22;7517;48.400;11.770;2023-12-04T15:15:09;1.60;68.50
14850;DHT22;7517;48.400;11.770;2023-12-04T15:17:55;1.50;68.50
14850;DHT22;7517;48.400;11.770;2023-12-04T15:20:59;1.50;68.80
14850;DHT22;7517;48.400;11.770;2023-12-04T15:26:53;3.20;69.70
14850;DHT22;7517;48.400;11.770;2023-12-04T15:29:53;1.40;69.00
14850;DHT22;7517;48.400;11.770;2023-12-04T15:32:34;1.10;68.70
14850;DHT22;7517;48.400;11.770;2023-12-04T15:35:30;1.30;68.90
14850;DHT22;7517;48.400;11.770;2023-12-04T15:38:10;1.30;68.80
14850;DHT22;7517;48.400;11.770;2023-12-04T15:40:41;3.10;70.10
14850;DHT22;7517;48.400;11.770;2023-12-04T15:43:07;1.30;69.30
14850;DHT22;7517;48.400;11.770;2023-12-04T15:45:35;1.30;69.40
14850;DHT22;7517;48.400;11.770;2023-12-04T15:48:02;1.30;69.40
14850;DHT22;7517;48.400;11.770;2023-12-04T15:50:29;1.30;69.60
14850;DHT22;7517;48.400;11.770;2023-12-04T15:52:58;1.20;69.70
14850;DHT22;7517;48.400;11.770;2023-12-04T15:55:27;1.20;69.70
14850;DHT22;7517;48.400;11.770;2023-12-04T15:57:54;1.20;69.50
14850;DHT22;7517;48.400;11.770;2023-12-04T16:00:21;1.10;69.50
14850;DHT22;7517;48.400;11.770;2023-12-04T16:02:49;1.10;69.50
14850;DHT22;7517;48.400;11.770;2023-12-04T16:05:17;1.10;69.40
14850;DHT22;7517;48.400;11.770;2023-12-04T16:07:45;1.00;70.00
14850;DHT22;7517;48.400;11.770;2023-12-04T16:10:14;1.00;69.30
14850;DHT22;7517;48.400;11.770;2023-12-04T16:12:41;1.00;69.20
14850;DHT22;7517;48.400;11.770;2023-12-04T16:15:09;0.90;69.10
14850;DHT22;7517;48.400;11.770;2023-12-04T16:17:38;0.90;69.30
14850;DHT22;7517;48.400;11.770;2023-12-04T16:20:07;0.90;69.40
14850;DHT22;7517;48.400;11.770;2023-12-04T16:22:36;0.80;69.40
14850;DHT22;7517;48.400;11.770;2023-12-04T16:25:05;0.80;69.60
14850;DHT22;7517;48.400;11.770;2023-12-04T16:27:33;0.80;69.80
14850;DHT22;7517;48.400;11.770;2023-12-04T16:30:00;0.80;69.80
14850;DHT22;7517;48.400;11.770;2023-12-04T16:32:27;0.80;69.90
14850;DHT22;7517;48.400;11.770;2023-12-04T16:34:56;0.80;69.90